Maersk Magellan — 9V6751 — position and weather

sailwx.info

Track history (hours):
 
Tides and Currents Weather Stations Pressure Air Temp Water Temp Dewpoint Dewpoint Depression Visibility Wind Speed Wind Dir Waves Ship Positions

Maersk Magellan

Last reported at 2015-Mar-25 15:16 UTC. Time now 2015-Mar-30 01:06 UTC.
Position N 35°60' E 120°15'.

; draft 8.5 m.

Type: Ship. MMSI: 566549000.

Date/timePositionNaut miles runAvg speedWind from/ knotsBaromVisibWave heightAir tempDewpointWater temp
2015-Mar-25 15:16N 35°60' E 120°15'0 0.0
2015-Mar-25 14:32N 35°60' E 120°15'0 0.0
2015-Mar-25 13:33N 35°60' E 120°15'1 0.1
2015-Mar-25 08:33N 36°00' E 120°15'6 6.3
2015-Mar-25 07:33N 36°01' E 120°23'4 3.4
2015-Mar-25 06:29N 35°58' E 120°25'0 0.0
2015-Mar-25 05:23N 35°58' E 120°25'0 0.0
2015-Mar-25 04:29N 35°58' E 120°25'0 0.0
2015-Mar-25 03:29N 35°58' E 120°25'0 0.0
2015-Mar-25 02:23N 35°58' E 120°25'0 0.1
2015-Mar-25 01:29N 35°58' E 120°25'0 0.1
2015-Mar-25 00:29N 35°58' E 120°25'0 0.0
2015-Mar-24 23:17N 35°58' E 120°25'0 0.1
2015-Mar-24 22:29N 35°58' E 120°25'0 0.1
2015-Mar-24 21:17N 35°58' E 120°25'0 0.0
2015-Mar-24 20:29N 35°58' E 120°25'0 0.1
2015-Mar-24 19:29N 35°58' E 120°25'0 0.0
2015-Mar-24 18:29N 35°58' E 120°25'0 0.1
2015-Mar-24 17:29N 35°58' E 120°25'0 0.0
2015-Mar-24 16:29N 35°58' E 120°25'0 0.0
2015-Mar-24 15:29N 35°58' E 120°25'0 0.0
2015-Mar-24 14:29N 35°58' E 120°25'0 0.1
2015-Mar-24 13:29N 35°58' E 120°25'0 0.0
2015-Mar-24 11:32N 35°58' E 120°25'0 0.0
2015-Mar-24 10:29N 35°58' E 120°25'0 0.0
2015-Mar-24 08:29N 35°58' E 120°25'0 0.1
2015-Mar-24 07:29N 35°58' E 120°25'1 1.1
2015-Mar-24 06:33N 35°59' E 120°26'1111.1
2015-Mar-24 05:33N 35°58' E 120°39'1111.3
2015-Mar-24 04:33N 35°56' E 120°53'1312.7
2015-Mar-24 03:33N 35°57' E 121°09'1413.0
2015-Mar-24 02:27N 35°57' E 121°27'1213.2
2015-Mar-24 01:33N 35°58' E 121°41'1410.1
2015-Mar-24 00:13N 35°45' E 121°36'913.1
2015-Mar-23 23:33N 35°37' E 121°31'21 6.9
2015-Mar-23 20:32N 35°17' E 121°35'159 6.9
2015-Mar-22 21:33N 33°18' E 123°43'7 5.7
2015-Mar-22 20:18N 33°12' E 123°46'6 6.1
2015-Mar-22 19:23N 33°06' E 123°47'6 6.9
2015-Mar-22 18:33N 33°00' E 123°48'8 7.7
2015-Mar-22 17:29N 32°52' E 123°49'9 8.1
2015-Mar-22 16:24N 32°43' E 123°51'7 7.9
2015-Mar-22 15:32N 32°37' E 123°52'7 7.4
2015-Mar-22 14:32N 32°29' E 123°53'7 6.6
2015-Mar-22 13:33N 32°23' E 123°54'6 5.9
2015-Mar-22 12:32N 32°17' E 123°55'5 5.3
2015-Mar-22 11:33N 32°12' E 123°56'5 4.6
2015-Mar-22 10:33N 32°07' E 123°57'5 4.7
2015-Mar-22 09:29N 32°02' E 123°58'5 5.0
2015-Mar-22 08:33N 31°58' E 123°59'5 5.3
2015-Mar-22 07:33N 31°53' E 124°00'6 6.0
2015-Mar-22 06:33N 31°47' E 124°01'6 6.5
2015-Mar-22 05:33N 31°40' E 124°02'1010.1
2015-Mar-22 04:32N 31°30' E 124°04'1312.9
2015-Mar-22 03:34N 31°18' E 124°06'8 8.1
2015-Mar-22 02:33N 31°09' E 124°06'9 8.0
2015-Mar-22 01:28N 31°01' E 124°08'8 7.7
2015-Mar-22 00:29N 30°53' E 124°09'6 6.7
2015-Mar-21 23:32N 30°47' E 124°09'8 6.0
2015-Mar-21 22:11N 30°39' E 124°08'3 5.5
2015-Mar-21 21:33N 30°35' E 124°07'5 5.1
2015-Mar-21 20:32N 30°30' E 124°06'  
Track history (hours):
 
Tides and Currents Weather Stations Pressure Air Temp Water Temp Dewpoint Dewpoint Depression Visibility Wind Speed Wind Dir Waves Ship Positions

Maersk Magellan

Last reported at 2015-Mar-25 15:16 UTC. Time now 2015-Mar-30 01:06 UTC.
Position N 35°60' E 120°15'.

; draft 8.5 m.

Type: Ship. MMSI: 566549000.

Date/timePositionNaut miles runAvg speedWind from/ knotsBaromVisibWave heightAir tempDewpointWater temp
2015-Mar-25 15:16N 35°60' E 120°15'0 0.0
2015-Mar-25 14:32N 35°60' E 120°15'0 0.0
2015-Mar-25 13:33N 35°60' E 120°15'1 0.1
2015-Mar-25 08:33N 36°00' E 120°15'6 6.3
2015-Mar-25 07:33N 36°01' E 120°23'4 3.4
2015-Mar-25 06:29N 35°58' E 120°25'0 0.0
2015-Mar-25 05:23N 35°58' E 120°25'0 0.0
2015-Mar-25 04:29N 35°58' E 120°25'0 0.0
2015-Mar-25 03:29N 35°58' E 120°25'0 0.0
2015-Mar-25 02:23N 35°58' E 120°25'0 0.1
2015-Mar-25 01:29N 35°58' E 120°25'0 0.1
2015-Mar-25 00:29N 35°58' E 120°25'0 0.0
2015-Mar-24 23:17N 35°58' E 120°25'0 0.1
2015-Mar-24 22:29N 35°58' E 120°25'0 0.1
2015-Mar-24 21:17N 35°58' E 120°25'0 0.0
2015-Mar-24 20:29N 35°58' E 120°25'0 0.1
2015-Mar-24 19:29N 35°58' E 120°25'0 0.0
2015-Mar-24 18:29N 35°58' E 120°25'0 0.1
2015-Mar-24 17:29N 35°58' E 120°25'0 0.0
2015-Mar-24 16:29N 35°58' E 120°25'0 0.0
2015-Mar-24 15:29N 35°58' E 120°25'0 0.0
2015-Mar-24 14:29N 35°58' E 120°25'0 0.1
2015-Mar-24 13:29N 35°58' E 120°25'0 0.0
2015-Mar-24 11:32N 35°58' E 120°25'0 0.0
2015-Mar-24 10:29N 35°58' E 120°25'0 0.0
2015-Mar-24 08:29N 35°58' E 120°25'0 0.1
2015-Mar-24 07:29N 35°58' E 120°25'1 1.1
2015-Mar-24 06:33N 35°59' E 120°26'1111.1
2015-Mar-24 05:33N 35°58' E 120°39'1111.3
2015-Mar-24 04:33N 35°56' E 120°53'1312.7
2015-Mar-24 03:33N 35°57' E 121°09'1413.0
2015-Mar-24 02:27N 35°57' E 121°27'1213.2
2015-Mar-24 01:33N 35°58' E 121°41'1410.1
2015-Mar-24 00:13N 35°45' E 121°36'913.1
2015-Mar-23 23:33N 35°37' E 121°31'21 6.9
2015-Mar-23 20:32N 35°17' E 121°35'159 6.9
2015-Mar-22 21:33N 33°18' E 123°43'7 5.7
2015-Mar-22 20:18N 33°12' E 123°46'6 6.1
2015-Mar-22 19:23N 33°06' E 123°47'6 6.9
2015-Mar-22 18:33N 33°00' E 123°48'8 7.7
2015-Mar-22 17:29N 32°52' E 123°49'9 8.1
2015-Mar-22 16:24N 32°43' E 123°51'7 7.9
2015-Mar-22 15:32N 32°37' E 123°52'7 7.4
2015-Mar-22 14:32N 32°29' E 123°53'7 6.6
2015-Mar-22 13:33N 32°23' E 123°54'6 5.9
2015-Mar-22 12:32N 32°17' E 123°55'5 5.3
2015-Mar-22 11:33N 32°12' E 123°56'5 4.6
2015-Mar-22 10:33N 32°07' E 123°57'5 4.7
2015-Mar-22 09:29N 32°02' E 123°58'5 5.0
2015-Mar-22 08:33N 31°58' E 123°59'5 5.3
2015-Mar-22 07:33N 31°53' E 124°00'6 6.0
2015-Mar-22 06:33N 31°47' E 124°01'6 6.5
2015-Mar-22 05:33N 31°40' E 124°02'1010.1
2015-Mar-22 04:32N 31°30' E 124°04'1312.9
2015-Mar-22 03:34N 31°18' E 124°06'8 8.1
2015-Mar-22 02:33N 31°09' E 124°06'9 8.0
2015-Mar-22 01:28N 31°01' E 124°08'8 7.7
2015-Mar-22 00:29N 30°53' E 124°09'6 6.7
2015-Mar-21 23:32N 30°47' E 124°09'8 6.0
2015-Mar-21 22:11N 30°39' E 124°08'3 5.5
2015-Mar-21 21:33N 30°35' E 124°07'5 5.1
2015-Mar-21 20:32N 30°30' E 124°06'  

Dump ship's entire track history